Portada
METAR-TAF:

METAR-TAF

Aeropuertos :

San Sebastián, España

Aeropuerto de San Sebastián

latitud: 43-21N, longitud: 001-48W, altitud: 5 m

Observación

El informe se hizo hace 42 minutos, a las 14:00 UTC
Viento 11 kt del norte-noreste
Temperatura 22°C
Humedad 53%
Presión 1019 hPa
Visibilidad 10 km o más
sin nubes por debajo de 1500 m y sin presencia de cumulonimbus.

METAR: LESO 201400Z 02011KT CAVOK 22/12 Q1019

Hora: 16:42 (14:42 UTC)

Pronóstico

El informe se hizo hace 3 horas y 42 minutos, a las 11:00 UTC
Pronóstico válido del 20 a las 12 UTC al 21 a las 12 UTC
Viento 8 kt del norte-noreste
Visibilidad 10 km o más
sin nubes por debajo de 1500 m y sin presencia de cumulonimbus.
Evolucionando progresivamente
del 21 a las 08 UTC al 21 a las 12 UTC
Viento 10 kt del oeste-noroeste

TAF: LESO 201100Z 2012/2112 03008KT CAVOK TX24/2014Z TN14/2103Z BECMG 2108/2112 29010KT

Observaciones y pronósticos meteorológicos de más de 4000 aeropuertos (mensajes METAR y TAF).

Los puntos amarillos y rojos representan las estaciones disponibles.

Ponga el ratón en el punto deseado para ver el nombre de la estación.

Haga clic para ver las observaciones y los pronósticos meteorológicos.

Para cambiar el mapa : haga clic en los botones verdes con una cruz de color negro para hacer un zoom, en el botón verde con un guión para alejar o en las flechas verdes para mapas adyacentes.


METAR-TAF: